Time;durP1;ratioP1;P1;durP2;ratioP2;P2;SDS_P1;SDS_P2;PMS_P1;PMS_P2;Temp;Humidity;BMP_temperature;BMP_pressure;BME280_temperature;BME280_humidity;BME280_pressure;Samples;Min_cycle;Max_cycle;Signal;HPM_P1;HPM_P2
2021/01/08 00:01:55;;;;;;;35.40;18.33;;;;;;;0.64;100.00;101832.25;1936431;74;26636;-80
2021/01/08 00:04:24;;;;;;;37.87;18.57;;;;;;;0.59;100.00;101831.17;1902891;75;26207;-81
2021/01/08 00:06:58;;;;;;;38.73;19.17;;;;;;;0.59;100.00;101830.66;1900350;75;26636;-80
2021/01/08 00:09:28;;;;;;;37.07;18.33;;;;;;;0.72;100.00;101839.50;1881184;76;26350;-80
2021/01/08 00:11:58;;;;;;;38.73;19.00;;;;;;;0.76;100.00;101827.13;1898502;75;26192;-80
2021/01/08 00:14:27;;;;;;;35.47;18.73;;;;;;;0.63;100.00;101818.28;1898428;75;26227;-80
2021/01/08 00:16:58;;;;;;;38.00;18.83;;;;;;;0.79;100.00;101826.72;1935790;74;26208;-80
2021/01/08 00:19:28;;;;;;;40.53;19.70;;;;;;;0.79;100.00;101818.00;1902935;75;26686;-79
2021/01/08 00:21:58;;;;;;;35.70;18.93;;;;;;;0.65;100.00;101820.80;1901313;75;26184;-80
2021/01/08 00:24:29;;;;;;;41.97;19.00;;;;;;;0.44;100.00;101814.83;1901296;75;26414;-81
2021/01/08 00:27:04;;;;;;;38.93;19.07;;;;;;;0.37;100.00;101802.99;1878483;76;26182;-80
2021/01/08 00:29:34;;;;;;;35.87;17.30;;;;;;;0.26;100.00;101802.97;1901286;75;26262;-79
2021/01/08 00:32:04;;;;;;;38.47;19.57;;;;;;;0.35;100.00;101803.70;1901202;75;26202;-79
2021/01/08 00:34:34;;;;;;;38.07;18.67;;;;;;;0.30;100.00;101797.45;1936230;74;26181;-79
2021/01/08 00:37:04;;;;;;;34.43;17.53;;;;;;;0.30;100.00;101797.45;1902864;75;26207;-80
2021/01/08 00:39:36;;;;;;;35.97;18.10;;;;;;;0.33;100.00;101802.55;1901340;75;26247;-80
2021/01/08 00:42:06;;;;;;;37.73;18.57;;;;;;;0.31;100.00;101792.31;1901248;75;26654;-81
2021/01/08 00:44:37;;;;;;;39.90;18.93;;;;;;;0.33;100.00;101790.77;1878483;76;26190;-80
2021/01/08 00:47:09;;;;;;;36.13;17.80;;;;;;;0.44;100.00;101795.69;1901456;75;26683;-81
2021/01/08 00:49:39;;;;;;;38.77;18.17;;;;;;;0.44;100.00;101796.55;1901242;75;26206;-81
2021/01/08 00:52:09;;;;;;;36.80;18.40;;;;;;;0.46;100.00;101796.36;1936235;74;26715;-81
2021/01/08 00:54:38;;;;;;;36.87;19.07;;;;;;;0.48;100.00;101802.97;1902803;75;26195;-81
2021/01/08 00:57:08;;;;;;;38.27;18.50;;;;;;;0.39;100.00;101797.64;1901505;75;26184;-81
2021/01/08 00:59:38;;;;;;;39.43;19.00;;;;;;;0.48;100.00;101802.97;1901281;75;26206;-81
2021/01/08 01:02:08;;;;;;;35.40;17.37;;;;;;;0.48;100.00;101794.26;1878403;76;26190;-81
2021/01/08 01:04:38;;;;;;;36.63;18.30;;;;;;;0.52;100.00;101796.07;1901311;75;26269;-80
2021/01/08 01:07:08;;;;;;;37.03;17.97;;;;;;;0.49;100.00;101796.47;1901322;75;26191;-82
2021/01/08 01:09:37;;;;;;;33.70;18.20;;;;;;;0.54;100.00;101783.92;1922634;73;26228;-82
2021/01/08 01:12:08;;;;;;;33.37;18.27;;;;;;;0.40;100.00;101786.20;1897970;75;26183;-82
2021/01/08 01:14:38;;;;;;;38.03;18.03;;;;;;;0.36;100.00;101782.16;1898496;75;26191;-82
2021/01/08 01:17:08;;;;;;;34.17;18.57;;;;;;;0.35;100.00;101783.20;1898585;75;26194;-83
2021/01/08 01:19:38;;;;;;;34.73;17.63;;;;;;;0.38;100.00;101787.78;1884928;76;26174;-81
2021/01/08 01:22:08;;;;;;;36.30;18.67;;;;;;;0.44;100.00;101789.71;1898472;75;26180;-80
2021/01/08 01:24:38;;;;;;;37.47;18.90;;;;;;;0.55;100.00;101794.33;1898472;75;26263;-79
2021/01/08 01:27:08;;;;;;;36.83;18.83;;;;;;;0.52;100.00;101793.34;1933322;74;26657;-80
2021/01/08 01:29:38;;;;;;;34.37;17.63;;;;;;;0.39;100.00;101797.64;1899978;75;26195;-80
2021/01/08 01:32:08;;;;;;;35.53;18.73;;;;;;;0.42;100.00;101794.55;1898428;75;26196;-80
2021/01/08 01:34:38;;;;;;;38.70;18.90;;;;;;;0.48;100.00;101798.36;1898426;75;26207;-80
2021/01/08 01:37:08;;;;;;;36.40;18.33;;;;;;;0.51;100.00;101795.77;1885010;76;26210;-81
2021/01/08 01:39:37;;;;;;;39.93;19.20;;;;;;;0.61;100.00;101790.28;1898521;75;26263;-80
2021/01/08 01:42:07;;;;;;;36.67;17.80;;;;;;;0.60;100.00;101790.50;1898515;75;26187;-80
2021/01/08 01:44:37;;;;;;;36.70;18.47;;;;;;;0.58;100.00;101789.31;1933446;74;26647;-80
2021/01/08 01:47:08;;;;;;;35.27;18.00;;;;;;;0.72;100.00;101794.38;1900044;75;26701;-80
2021/01/08 01:49:38;;;;;;;36.00;17.70;;;;;;;0.72;100.00;101794.38;1898286;75;26689;-80
2021/01/08 01:52:07;;;;;;;36.13;18.40;;;;;;;0.64;100.00;101798.63;1898369;75;26194;-81
2021/01/08 01:54:38;;;;;;;36.73;19.23;;;;;;;0.58;100.00;101793.94;1933395;74;26700;-80
2021/01/08 01:57:08;;;;;;;35.17;18.07;;;;;;;0.64;100.00;101789.87;1900129;75;26187;-80
2021/01/08 01:59:37;;;;;;;38.30;18.53;;;;;;;0.73;100.00;101787.84;1898393;75;26707;-80
2021/01/08 02:02:11;;;;;;;36.77;19.03;;;;;;;0.82;100.00;101790.25;1898528;75;26666;-80
2021/01/08 02:04:41;;;;;;;36.93;18.60;;;;;;;0.87;100.00;101791.87;1900069;75;26202;-80
2021/01/08 02:07:12;;;;;;;36.47;18.47;;;;;;;0.74;100.00;101794.50;1900133;75;26247;-80
2021/01/08 02:09:43;;;;;;;33.10;17.83;;;;;;;0.77;100.00;101790.53;1894449;74;26231;-81
2021/01/08 02:12:14;;;;;;;37.40;18.57;;;;;;;0.74;100.00;101792.28;1901927;75;26756;-82
2021/01/08 02:14:47;;;;;;;37.10;18.23;;;;;;;0.74;100.00;101790.39;1901944;75;26191;-80
2021/01/08 02:17:18;;;;;;;34.70;17.87;;;;;;;0.82;100.00;101794.87;1937082;74;26184;-80
2021/01/08 02:19:51;;;;;;;36.93;17.87;;;;;;;0.87;100.00;101792.39;1904047;75;26208;-81
2021/01/08 02:22:25;;;;;;;35.40;19.63;;;;;;;0.91;100.00;101795.05;1901910;75;26265;-81
2021/01/08 02:25:16;;;;;;;36.47;18.57;;;;;;;1.01;100.00;101791.45;1901966;75;26615;-80
2021/01/08 02:27:53;;;;;;;35.23;17.53;;;;;;;0.96;100.00;101798.55;1888620;76;26653;-81
2021/01/08 02:30:23;;;;;;;38.83;19.53;;;;;;;0.91;100.00;101793.67;1900247;75;26254;-80
2021/01/08 02:32:54;;;;;;;35.73;18.00;;;;;;;0.91;100.00;101798.63;1902025;75;26253;-80
2021/01/08 02:35:24;;;;;;;33.80;17.27;;;;;;;0.89;100.00;101796.63;1888607;76;26261;-80
2021/01/08 02:37:56;;;;;;;36.47;18.43;;;;;;;0.89;100.00;101793.05;1901967;75;26200;-80
2021/01/08 02:40:28;;;;;;;37.77;18.40;;;;;;;0.89;100.00;101795.27;1901892;75;26190;-81
2021/01/08 02:43:00;;;;;;;43.60;20.53;;;;;;;0.93;100.00;101792.13;1888633;76;26264;-81
2021/01/08 02:45:31;;;;;;;36.27;19.23;;;;;;;1.01;100.00;101797.44;1903754;75;26219;-81
2021/01/08 02:48:01;;;;;;;37.30;19.57;;;;;;;1.01;100.00;101791.97;1936977;74;26213;-82
2021/01/08 02:50:31;;;;;;;37.43;18.50;;;;;;;1.00;100.00;101783.43;1903801;75;26710;-81
2021/01/08 02:53:05;;;;;;;36.50;18.70;;;;;;;0.99;100.00;101777.62;1902046;75;26199;-81
2021/01/08 02:55:37;;;;;;;37.20;18.20;;;;;;;1.02;100.00;101782.72;1901940;75;26222;-80
2021/01/08 02:58:07;;;;;;;38.03;18.37;;;;;;;0.99;100.00;101780.36;1936925;74;26213;-80
2021/01/08 03:00:38;;;;;;;39.73;20.63;;;;;;;1.06;100.00;101781.28;1904018;75;26312;-80
2021/01/08 03:03:08;;;;;;;34.43;18.50;;;;;;;1.00;100.00;101780.17;1902086;75;26728;-81
2021/01/08 03:05:38;;;;;;;35.73;18.07;;;;;;;1.12;100.00;101783.19;1901934;75;26653;-79
2021/01/08 03:08:08;;;;;;;37.87;18.00;;;;;;;1.04;100.00;101780.61;1936997;74;26212;-79
2021/01/08 03:10:38;;;;;;;37.60;18.63;;;;;;;1.06;100.00;101785.38;1902991;74;26239;-79
2021/01/08 03:13:09;;;;;;;34.47;17.60;;;;;;;1.09;100.00;101784.45;1898644;75;26184;-79
2021/01/08 03:15:38;;;;;;;34.13;18.67;;;;;;;0.91;100.00;101781.37;1898345;75;26725;-79
2021/01/08 03:18:08;;;;;;;36.10;18.50;;;;;;;0.94;100.00;101774.16;1933516;74;26624;-79
2021/01/08 03:20:38;;;;;;;35.73;17.97;;;;;;;0.98;100.00;101773.23;1900346;75;26273;-80
2021/01/08 03:23:08;;;;;;;37.83;17.93;;;;;;;0.87;100.00;101771.36;1898393;75;26278;-79
2021/01/08 03:25:38;;;;;;;34.60;17.80;;;;;;;0.76;100.00;101776.53;1898363;75;26256;-80
2021/01/08 03:28:08;;;;;;;34.10;17.73;;;;;;;0.90;100.00;101776.42;1884822;76;26174;-80
2021/01/08 03:30:38;;;;;;;39.77;17.97;;;;;;;0.88;100.00;101771.69;1898430;75;26253;-79
2021/01/08 03:33:08;;;;;;;35.87;19.07;;;;;;;0.75;100.00;101776.20;1898475;75;26187;-79
2021/01/08 03:35:38;;;;;;;33.80;18.57;;;;;;;0.74;100.00;101775.87;1933338;74;26246;-79
2021/01/08 03:38:08;;;;;;;32.87;17.67;;;;;;;0.81;100.00;101782.26;1900117;75;26180;-78
2021/01/08 03:40:40;;;;;;;35.00;18.43;;;;;;;0.69;100.00;101782.45;1898603;75;26757;-80
2021/01/08 03:43:11;;;;;;;35.83;18.20;;;;;;;0.61;100.00;101777.98;1898818;75;26183;-79
2021/01/08 03:45:41;;;;;;;35.43;17.80;;;;;;;0.65;100.00;101769.70;1884881;76;26271;-80
2021/01/08 03:48:11;;;;;;;31.80;17.60;;;;;;;0.70;100.00;101770.48;1898427;75;26180;-79
2021/01/08 03:50:41;;;;;;;33.93;18.33;;;;;;;0.82;100.00;101774.36;1898338;75;26186;-79
2021/01/08 03:53:10;;;;;;;34.97;19.10;;;;;;;0.76;100.00;101768.33;1933433;74;26608;-80
2021/01/08 03:55:40;;;;;;;34.97;17.43;;;;;;;0.84;100.00;101769.03;1900019;75;26297;-80
2021/01/08 03:58:10;;;;;;;33.13;17.23;;;;;;;0.86;100.00;101770.17;1898371;75;26732;-79
2021/01/08 04:00:40;;;;;;;33.57;17.70;;;;;;;0.94;100.00;101769.20;1898459;75;26233;-79
2021/01/08 04:03:10;;;;;;;34.87;18.07;;;;;;;0.95;100.00;101769.50;1933329;74;26231;-80
2021/01/08 04:05:40;;;;;;;36.40;18.03;;;;;;;0.91;100.00;101772.64;1900077;75;26619;-79
2021/01/08 04:08:09;;;;;;;36.83;17.23;;;;;;;0.89;100.00;101769.28;1898561;75;26670;-79
2021/01/08 04:10:39;;;;;;;32.03;16.90;;;;;;;0.97;100.00;101766.06;1898384;73;26752;-79
2021/01/08 04:13:09;;;;;;;37.23;19.17;;;;;;;0.95;100.00;101758.56;1933496;74;26165;-79
2021/01/08 04:15:39;;;;;;;34.10;18.60;;;;;;;0.96;100.00;101756.16;1899986;75;26716;-79
2021/01/08 04:18:09;;;;;;;36.10;18.20;;;;;;;1.10;100.00;101745.11;1898307;75;26273;-79
2021/01/08 04:20:39;;;;;;;35.23;19.60;;;;;;;1.09;100.00;101744.78;1898343;75;26202;-79
2021/01/08 04:23:09;;;;;;;39.50;19.07;;;;;;;1.12;100.00;101748.47;1884895;76;26246;-79
2021/01/08 04:25:39;;;;;;;39.17;19.10;;;;;;;1.08;100.00;101743.60;1898361;75;26195;-79
2021/01/08 04:28:09;;;;;;;38.27;19.13;;;;;;;1.06;100.00;101743.83;1898408;75;26179;-79
2021/01/08 04:30:40;;;;;;;32.63;17.37;;;;;;;1.08;100.00;101746.34;1933376;74;26637;-78
2021/01/08 04:33:10;;;;;;;32.57;17.47;;;;;;;1.06;100.00;101745.19;1900134;75;26708;-78
2021/01/08 04:35:40;;;;;;;35.03;18.07;;;;;;;1.13;100.00;101736.49;1898389;75;26200;-79
2021/01/08 04:38:10;;;;;;;33.73;17.90;;;;;;;1.05;100.00;101742.13;1898450;75;26203;-79
2021/01/08 04:40:40;;;;;;;33.77;18.70;;;;;;;1.10;100.00;101736.91;1933288;74;26184;-79
2021/01/08 04:43:10;;;;;;;35.60;19.23;;;;;;;1.17;100.00;101733.67;1900003;75;26780;-79
2021/01/08 04:45:40;;;;;;;34.70;18.93;;;;;;;1.17;100.00;101736.92;1898343;75;26261;-79
2021/01/08 04:48:12;;;;;;;34.53;19.30;;;;;;;1.17;100.00;101735.04;1898314;75;26353;-80
2021/01/08 04:50:43;;;;;;;36.37;18.53;;;;;;;1.11;100.00;101729.55;1933507;74;26185;-80
2021/01/08 04:53:13;;;;;;;37.73;19.07;;;;;;;1.00;100.00;101730.94;1899986;75;26224;-80
2021/01/08 04:55:43;;;;;;;36.97;17.83;;;;;;;1.11;100.00;101735.02;1898568;75;26204;-80
2021/01/08 04:58:14;;;;;;;33.17;16.40;;;;;;;1.09;100.00;101729.73;1898452;75;26195;-80
2021/01/08 05:00:44;;;;;;;35.90;18.25;;;;;;;1.13;100.00;101733.75;1853444;76;936811;-79
2021/01/08 05:03:14;;;;;;;34.43;17.73;;;;;;;1.02;100.00;101741.17;1799172;80;26239;-78
2021/01/08 05:05:44;;;;;;;35.47;18.40;;;;;;;1.00;100.00;101734.19;1831286;78;26232;-79
2021/01/08 05:08:14;;;;;;;34.77;18.37;;;;;;;1.12;100.00;101740.78;1791708;80;26211;-79
2021/01/08 05:10:45;;;;;;;30.83;17.00;;;;;;;1.09;100.00;101746.15;1822766;77;26239;-79
2021/01/08 05:13:15;;;;;;;29.57;16.90;;;;;;;1.07;100.00;101748.78;1788556;79;26238;-79
2021/01/08 05:15:52;;;;;;;32.43;17.37;;;;;;;1.33;100.00;101751.12;1822796;79;26325;-78
2021/01/08 05:18:22;;;;;;;31.70;17.43;;;;;;;1.23;100.00;101744.34;1788576;80;26294;-79
2021/01/08 05:20:53;;;;;;;35.13;18.03;;;;;;;1.03;100.00;101743.39;1822826;79;26321;-78
2021/01/08 05:23:24;;;;;;;29.80;16.93;;;;;;;1.09;100.00;101742.05;1788594;80;26262;-78
2021/01/08 05:25:55;;;;;;;35.77;18.30;;;;;;;1.10;100.00;101740.16;1822791;79;26254;-80
2021/01/08 05:28:25;;;;;;;30.60;17.27;;;;;;;1.10;100.00;101736.91;1788609;80;26324;-80
2021/01/08 05:30:57;;;;;;;31.67;17.93;;;;;;;1.13;100.00;101738.37;1822935;79;26363;-80
2021/01/08 05:33:29;;;;;;;31.73;17.57;;;;;;;1.15;100.00;101738.52;1788759;80;26302;-79
2021/01/08 05:36:00;;;;;;;33.33;17.67;;;;;;;1.20;100.00;101741.98;1822989;79;26210;-78
2021/01/08 05:38:32;;;;;;;32.43;17.97;;;;;;;1.20;100.00;101734.63;1788673;80;26223;-79
2021/01/08 05:41:05;;;;;;;32.67;17.63;;;;;;;1.18;100.00;101734.52;1822906;79;26247;-79
2021/01/08 05:43:35;;;;;;;35.93;17.67;;;;;;;1.24;100.00;101735.09;1788676;80;26578;-78
2021/01/08 05:46:16;;;;;;;35.57;18.67;;;;;;;1.23;100.00;101738.34;1822933;79;26291;-79
2021/01/08 05:48:50;;;;;;;36.17;18.27;;;;;;;1.40;100.00;101742.11;1788697;80;26207;-80
2021/01/08 05:51:21;;;;;;;35.60;18.60;;;;;;;1.38;100.00;101740.93;1822937;79;26243;-80
2021/01/08 05:53:52;;;;;;;28.03;16.63;;;;;;;1.34;100.00;101741.86;1788685;80;26231;-80
2021/01/08 05:56:23;;;;;;;33.50;17.97;;;;;;;1.37;100.00;101743.34;1822880;79;26263;-80
2021/01/08 05:58:54;;;;;;;35.23;18.57;;;;;;;1.45;100.00;101742.34;1788784;80;26278;-80
2021/01/08 06:01:24;;;;;;;31.50;18.20;;;;;;;1.42;100.00;101740.00;1823175;79;26269;-80
2021/01/08 06:03:56;;;;;;;31.70;17.20;;;;;;;1.39;100.00;101734.41;1788765;80;26227;-80
2021/01/08 06:06:26;;;;;;;35.70;18.60;;;;;;;1.38;100.00;101736.30;1822898;79;26270;-80
2021/01/08 06:08:58;;;;;;;33.30;17.70;;;;;;;1.43;100.00;101738.44;1788675;80;26328;-79
2021/01/08 06:11:31;;;;;;;37.23;19.80;;;;;;;1.45;100.00;101737.72;1822894;77;26231;-78
2021/01/08 06:14:03;;;;;;;36.13;18.90;;;;;;;1.47;100.00;101739.71;1788644;80;26242;-79
2021/01/08 06:16:38;;;;;;;36.03;18.73;;;;;;;1.49;100.00;101749.10;1822799;79;26316;-79
2021/01/08 06:19:09;;;;;;;33.97;18.90;;;;;;;1.42;100.00;101742.21;1788663;80;26209;-79
2021/01/08 06:21:42;;;;;;;36.67;18.70;;;;;;;1.38;100.00;101748.63;1822896;79;26264;-79
2021/01/08 06:24:14;;;;;;;37.80;19.03;;;;;;;1.48;100.00;101740.05;1788639;80;26255;-78
2021/01/08 06:26:45;;;;;;;37.73;19.37;;;;;;;1.40;100.00;101744.33;1822886;79;26655;-79
2021/01/08 06:29:20;;;;;;;33.47;17.73;;;;;;;1.43;100.00;101740.32;1788674;80;26235;-79
2021/01/08 06:31:51;;;;;;;32.50;18.07;;;;;;;1.42;100.00;101745.47;1822971;79;26251;-80
2021/01/08 06:34:25;;;;;;;35.87;19.47;;;;;;;1.37;100.00;101750.19;1788676;80;26286;-80
2021/01/08 06:37:06;;;;;;;36.27;19.03;;;;;;;1.44;100.00;101746.97;1822884;79;26255;-82
2021/01/08 06:39:38;;;;;;;36.83;18.73;;;;;;;1.46;100.00;101755.81;1788657;80;26693;-81
2021/01/08 06:42:09;;;;;;;32.10;18.87;;;;;;;1.47;100.00;101753.41;1822865;79;26219;-80
2021/01/08 06:44:40;;;;;;;32.93;18.83;;;;;;;1.41;100.00;101758.34;1788629;80;26348;-80
2021/01/08 06:47:10;;;;;;;32.30;18.33;;;;;;;1.39;100.00;101761.79;1822900;79;26246;-80
2021/01/08 06:49:43;;;;;;;35.03;19.40;;;;;;;1.58;100.00;101755.58;1788640;80;26219;-79
2021/01/08 06:52:15;;;;;;;35.90;19.37;;;;;;;1.54;100.00;101763.84;1822881;79;26301;-79
2021/01/08 06:54:53;;;;;;;35.73;18.67;;;;;;;1.54;100.00;101764.41;1788781;80;26705;-80
2021/01/08 06:57:24;;;;;;;32.30;18.30;;;;;;;1.52;100.00;101765.96;1822965;79;26230;-82
2021/01/08 06:59:57;;;;;;;38.20;19.20;;;;;;;1.55;100.00;101763.33;1788664;80;26300;-84
2021/01/08 07:02:31;;;;;;;37.30;19.70;;;;;;;1.57;100.00;101760.72;1822890;79;26492;-81
2021/01/08 07:05:03;;;;;;;39.17;20.20;;;;;;;1.65;100.00;101768.77;1788795;80;26280;-83
2021/01/08 07:07:34;;;;;;;36.87;19.23;;;;;;;1.67;100.00;101765.27;1822908;79;26288;-82
2021/01/08 07:10:07;;;;;;;34.67;18.40;;;;;;;1.63;100.00;101768.11;1788692;80;26762;-77
2021/01/08 07:12:40;;;;;;;33.37;18.87;;;;;;;1.55;100.00;101773.76;1794857;75;26227;-80
2021/01/08 07:15:13;;;;;;;34.47;19.00;;;;;;;1.59;100.00;101780.52;1790394;80;26235;-82
2021/01/08 07:17:43;;;;;;;34.60;18.73;;;;;;;1.53;100.00;101781.87;1822135;79;26290;-80
2021/01/08 07:20:14;;;;;;;32.60;18.57;;;;;;;1.65;100.00;101779.72;1790351;80;26290;-81
2021/01/08 07:22:44;;;;;;;35.90;18.57;;;;;;;1.59;100.00;101787.88;1822065;78;26627;-80
2021/01/08 07:25:18;;;;;;;36.40;19.33;;;;;;;1.55;100.00;101784.71;1790305;80;26302;-84
2021/01/08 07:27:48;;;;;;;35.73;19.47;;;;;;;1.60;100.00;101783.58;1822232;78;26238;-80
2021/01/08 07:30:18;;;;;;;32.13;19.27;;;;;;;1.60;100.00;101782.22;1790460;80;26670;-79
2021/01/08 07:32:51;;;;;;;36.13;19.90;;;;;;;1.66;100.00;101777.83;1822162;78;26243;-78
2021/01/08 07:35:25;;;;;;;36.33;19.97;;;;;;;1.69;100.00;101780.15;1790304;77;26320;-80
2021/01/08 07:38:06;;;;;;;36.97;19.53;;;;;;;1.64;100.00;101779.39;1822044;78;26273;-80
2021/01/08 07:40:37;;;;;;;33.83;20.60;;;;;;;1.71;100.00;101779.44;1790226;80;26219;-80
2021/01/08 07:43:08;;;;;;;37.63;19.87;;;;;;;1.70;100.00;101785.43;1822029;78;26210;-79
2021/01/08 07:45:50;;;;;;;34.17;19.73;;;;;;;1.61;100.00;101783.91;1790368;80;26266;-80
2021/01/08 07:48:25;;;;;;;37.13;20.03;;;;;;;1.81;100.00;101789.46;1822088;78;26195;-80
2021/01/08 07:50:59;;;;;;;33.83;19.03;;;;;;;1.81;100.00;101791.67;1790273;80;26647;-81
2021/01/08 07:53:51;;;;;;;30.23;17.67;;;;;;;1.80;100.00;101797.34;1822021;79;26253;-80
2021/01/08 07:56:22;;;;;;;36.50;19.17;;;;;;;1.71;100.00;101793.13;1790406;80;26211;-79
2021/01/08 07:59:03;;;;;;;31.50;18.17;;;;;;;1.62;100.00;101795.19;1822043;78;26697;-79
2021/01/08 08:01:34;;;;;;;35.23;17.90;;;;;;;1.68;100.00;101805.84;1790349;80;26219;-80
2021/01/08 08:04:05;;;;;;;36.93;18.90;;;;;;;1.61;100.00;101799.48;1822188;78;26682;-80
2021/01/08 08:06:39;;;;;;;35.57;19.13;;;;;;;1.73;100.00;101802.81;1790337;80;26235;-80
2021/01/08 08:09:14;;;;;;;34.00;18.10;;;;;;;1.68;100.00;101802.58;1822250;78;26312;-80
2021/01/08 08:11:44;;;;;;;35.20;18.63;;;;;;;1.64;100.00;101810.88;1790459;80;26286;-82
2021/01/08 08:14:16;;;;;;;38.43;19.07;;;;;;;1.75;100.00;101807.55;1820912;75;26670;-84
2021/01/08 08:16:46;;;;;;;33.17;18.90;;;;;;;1.87;100.00;101812.45;1788744;80;26670;-81
2021/01/08 08:19:17;;;;;;;31.93;19.20;;;;;;;1.67;100.00;101820.05;1819837;79;26199;-80
2021/01/08 08:21:49;;;;;;;31.23;18.37;;;;;;;1.72;100.00;101822.18;1788705;80;26296;-81
2021/01/08 08:24:22;;;;;;;31.43;17.63;;;;;;;1.66;100.00;101826.59;1819691;79;26278;-88
2021/01/08 08:26:52;;;;;;;34.43;18.23;;;;;;;1.44;100.00;101794.88;1788740;80;26377;-84
2021/01/08 08:29:41;;;;;;;31.87;18.57;;;;;;;1.70;100.00;101831.98;1819882;79;26207;-82
2021/01/08 08:32:12;;;;;;;30.87;16.80;;;;;;;1.76;100.00;101831.67;1780304;80;26212;-81
2021/01/08 08:34:43;;;;;;;33.73;17.87;;;;;;;1.72;100.00;101834.50;1819902;79;26199;-85
2021/01/08 08:37:16;;;;;;;35.80;18.27;;;;;;;1.71;100.00;101836.39;1788712;79;26261;-82
2021/01/08 08:39:46;;;;;;;32.77;18.37;;;;;;;1.67;100.00;101828.27;1819799;78;26277;-84
2021/01/08 08:42:21;;;;;;;31.87;17.63;;;;;;;1.67;100.00;101839.22;1788830;80;26653;-85
2021/01/08 08:44:51;;;;;;;31.47;17.57;;;;;;;1.71;100.00;101837.76;1819759;79;26211;-85
2021/01/08 08:47:22;;;;;;;38.40;19.77;;;;;;;1.87;100.00;101841.22;1788761;80;26645;-85
2021/01/08 08:49:52;;;;;;;36.70;20.33;;;;;;;1.85;100.00;101842.78;1819855;79;26230;-84
2021/01/08 08:52:29;;;;;;;34.83;19.43;;;;;;;1.79;100.00;101848.58;1788793;80;26214;-85
2021/01/08 08:55:02;;;;;;;37.10;20.40;;;;;;;1.85;100.00;101845.52;1820026;79;26293;-84
2021/01/08 08:57:43;;;;;;;38.23;20.10;;;;;;;1.99;100.00;101853.28;1788688;80;26303;-85
2021/01/08 09:00:26;;;;;;;35.73;20.30;;;;;;;2.08;100.00;101854.80;1819733;79;26230;-84
2021/01/08 09:02:57;;;;;;;41.87;20.37;;;;;;;2.25;100.00;101861.09;1788744;80;26279;-85
2021/01/08 09:05:35;;;;;;;39.80;21.73;;;;;;;2.33;100.00;101865.53;1820177;79;26645;-85
2021/01/08 09:08:12;;;;;;;40.73;21.27;;;;;;;2.28;100.00;101873.00;1788859;80;26209;-85
2021/01/08 09:10:48;;;;;;;41.03;22.03;;;;;;;2.15;100.00;101865.25;1820178;79;26283;-83
2021/01/08 09:13:24;;;;;;;48.73;22.40;;;;;;;2.28;100.00;101870.78;1788767;80;26755;-81
2021/01/08 09:15:59;;;;;;;39.03;21.77;;;;;;;2.30;100.00;101874.18;1819023;75;26266;-83
2021/01/08 09:18:37;;;;;;;36.50;20.47;;;;;;;2.21;100.00;101879.00;1788455;80;26277;-84
2021/01/08 09:21:11;;;;;;;40.23;21.73;;;;;;;2.19;100.00;101881.08;1819988;79;26808;-83
2021/01/08 09:23:43;;;;;;;47.20;22.40;;;;;;;2.31;100.00;101885.44;1788783;80;26245;-84
2021/01/08 09:26:17;;;;;;;39.20;21.47;;;;;;;2.28;100.00;101882.59;1819913;79;26307;-86
2021/01/08 09:28:50;;;;;;;42.77;21.63;;;;;;;2.30;100.00;101882.41;1788950;80;26645;-85
2021/01/08 09:31:22;;;;;;;44.30;22.00;;;;;;;2.18;100.00;101886.23;1819991;79;26710;-85
2021/01/08 09:33:59;;;;;;;42.33;20.53;;;;;;;2.18;100.00;101892.27;1786954;80;26220;-87
2021/01/08 09:36:34;;;;;;;46.23;21.70;;;;;;;2.28;100.00;101882.59;1820098;77;26342;-85
2021/01/08 09:39:07;;;;;;;49.43;21.90;;;;;;;2.36;100.00;101891.67;1788790;80;26735;-85
2021/01/08 09:41:38;;;;;;;41.27;21.97;;;;;;;2.43;100.00;101889.82;1819832;79;26218;-83
2021/01/08 09:44:11;;;;;;;41.40;21.97;;;;;;;2.36;100.00;101897.16;1788843;80;26693;-86
2021/01/08 09:46:57;;;;;;;51.33;23.90;;;;;;;2.39;100.00;101891.29;1819901;79;26230;-85
2021/01/08 09:49:29;;;;;;;43.47;24.17;;;;;;;2.37;100.00;101902.45;1788918;80;26664;-86
2021/01/08 09:52:03;;;;;;;43.73;22.43;;;;;;;2.59;100.00;101899.03;1818734;79;26254;-86
2021/01/08 09:54:47;;;;;;;40.43;22.13;;;;;;;2.57;100.00;101892.90;1788948;80;26217;-87
2021/01/08 09:57:27;;;;;;;49.70;24.00;;;;;;;2.58;100.00;101902.30;1819914;79;26214;-88
2021/01/08 09:59:59;;;;;;;42.60;22.20;;;;;;;2.42;100.00;101904.05;1789031;80;26322;-87
2021/01/08 10:02:40;;;;;;;48.53;25.20;;;;;;;2.55;100.00;101908.73;1820030;79;26336;-86
2021/01/08 10:05:25;;;;;;;46.60;25.10;;;;;;;2.60;100.00;101902.95;1789018;80;26661;-87
2021/01/08 10:07:57;;;;;;;49.23;25.20;;;;;;;2.71;100.00;101905.08;1820070;79;26626;-86
2021/01/08 10:10:41;;;;;;;46.87;23.43;;;;;;;2.60;100.00;101904.33;1788971;80;26690;-86
2021/01/08 10:13:23;;;;;;;43.27;22.60;;;;;;;2.63;100.00;101903.05;1820031;79;26214;-88
2021/01/08 10:15:56;;;;;;;41.37;22.00;;;;;;;2.78;100.00;101902.89;1788893;77;26239;-86
2021/01/08 10:18:28;;;;;;;43.93;22.97;;;;;;;2.62;100.00;101903.58;1823093;79;26760;-87
2021/01/08 10:21:04;;;;;;;45.47;23.37;;;;;;;2.64;100.00;101897.89;1788953;80;26694;-87
2021/01/08 10:23:40;;;;;;;41.27;23.60;;;;;;;2.67;100.00;101910.66;1823047;79;26267;-86
2021/01/08 10:26:15;;;;;;;43.80;22.80;;;;;;;2.83;100.00;101903.08;1788886;80;26223;-86
2021/01/08 10:28:50;;;;;;;41.20;22.87;;;;;;;2.88;100.00;101904.67;1823091;79;26206;-86
2021/01/08 10:31:21;;;;;;;42.40;23.33;;;;;;;2.83;100.00;101904.45;1788809;80;26325;-85
2021/01/08 10:33:51;;;;;;;45.47;24.70;;;;;;;2.69;100.00;101904.98;1822959;79;26682;-86
2021/01/08 10:36:21;;;;;;;43.97;23.90;;;;;;;2.80;100.00;101901.61;1788742;80;26219;-84
2021/01/08 10:38:51;;;;;;;44.67;24.50;;;;;;;2.92;100.00;101903.20;1822997;79;26715;-83
2021/01/08 10:41:21;;;;;;;43.90;23.67;;;;;;;2.93;100.00;101899.41;1788699;80;26281;-84
2021/01/08 10:43:52;;;;;;;49.30;25.43;;;;;;;2.86;100.00;101898.05;1823000;77;26332;-84
2021/01/08 10:46:22;;;;;;;48.00;24.17;;;;;;;2.85;100.00;101896.35;1788779;80;26230;-85
2021/01/08 10:48:52;;;;;;;44.67;24.33;;;;;;;3.07;100.00;101894.27;1822956;79;26702;-85
2021/01/08 10:51:28;;;;;;;46.43;23.73;;;;;;;3.13;100.00;101901.64;1788741;80;26227;-84
2021/01/08 10:53:58;;;;;;;48.13;24.40;;;;;;;3.10;100.00;101899.33;1822985;79;26333;-83
2021/01/08 10:56:29;;;;;;;50.10;25.60;;;;;;;3.05;100.00;101903.22;1788728;80;26207;-84
2021/01/08 10:58:59;;;;;;;44.53;24.53;;;;;;;3.38;100.00;101900.50;1822969;79;26527;-83
2021/01/08 11:01:30;;;;;;;54.50;26.40;;;;;;;3.11;100.00;101902.39;1788764;80;26724;-84
2021/01/08 11:04:00;;;;;;;53.20;26.07;;;;;;;3.04;100.00;101905.64;1821811;79;26235;-83
2021/01/08 11:06:30;;;;;;;49.83;24.93;;;;;;;3.40;100.00;101906.61;1788913;80;26713;-83
2021/01/08 11:09:00;;;;;;;43.83;24.07;;;;;;;3.55;100.00;101905.31;1823277;79;26332;-84
2021/01/08 11:11:30;;;;;;;45.80;24.97;;;;;;;3.32;100.00;101897.22;1788812;80;26262;-83
2021/01/08 11:14:00;;;;;;;42.83;24.50;;;;;;;3.42;100.00;101890.25;1819833;78;26345;-83
2021/01/08 11:16:31;;;;;;;51.40;25.40;;;;;;;3.21;100.00;101893.19;1822519;75;26270;-82
2021/01/08 11:19:02;;;;;;;47.73;24.67;;;;;;;3.14;100.00;101900.59;1790314;80;26678;-83
2021/01/08 11:21:32;;;;;;;48.60;24.63;;;;;;;3.10;100.00;101893.83;1822095;79;26304;-83
2021/01/08 11:24:02;;;;;;;45.07;23.43;;;;;;;3.20;100.00;101898.39;1790377;80;26254;-82
2021/01/08 11:26:32;;;;;;;46.13;24.83;;;;;;;3.13;100.00;101894.78;1822021;78;26218;-81
2021/01/08 11:29:02;;;;;;;54.77;25.40;;;;;;;3.16;100.00;101888.36;1790370;80;26292;-79
2021/01/08 11:31:53;;;;;;;48.30;23.77;;;;;;;3.20;100.00;101884.14;1822261;79;26203;-81